Arctic - Eastern Arctic: Past 24 Hour Conditions

 

Baker Lake Airport

08:00 AM CDT 17 April 2014
This table is a summary of hourly weather conditions for the past 24 hours.
Date / Time
(CDT)
Wind(knots) Conditions Visibility(km) Pressure(kPa) Air tempC) Relative humidity(%) Dew pointC) Wind Chill
17 April 2014
8:00 NNW 22 Ice Crystals 32 101.3 -18 77 -22 -32
7:00 NNW 20 gust 27 Ice Crystals 32 101.2 -19 78 -22 -32
6:00 NNW 15 Ice Crystals 32 101.1 -18 80 -20 -29
5:00 NNW 14 Light Snow 24 101.0 -16 80 -19 -27
4:00 NW 16 Light Snow 16 100.9 -15 81 -17 -25
3:00 NNW 16 gust 21 Light Snow 16 100.8 -12 83 -15 -23
2:00 WNW 16 Drifting Snow 24 100.7 -12 83 -15 -23
1:00 WNW 18 Drifting Snow 24 100.8 -12 82 -14 -22
0:00 WNW 15 Drifting Snow 24 100.8 -12 83 -14 -21
16 April 2014
23:00 WNW 21 gust 26 Drifting Snow 24 100.8 -11 81 -14 -22
22:00 WNW 15 gust 21 Drifting Snow 24 100.9 -11 81 -14 -20
21:00 W 15 Mostly Cloudy 32 101.0 -11 82 -13 -20
20:00 W 13 Drifting Snow 32 101.1 -11 82 -13 -19
19:00 W 14 Drifting Snow 32 101.2 -11 80 -13 -20
18:00 WNW 18 Drifting Snow 32 101.2 -10 77 -13 -20
17:00 WNW 19 Drifting Snow 32 101.3 -11 75 -14 -21
16:00 W 14 gust 22 Drifting Snow 32 101.4 -10 74 -14 -20
15:00 W 22 gust 30 Drifting Snow 32 101.4 -11 73 -15 -22
14:00 WNW 24 Partly Cloudy 32 101.5 -12 71 -16 -24
13:00 WNW 21 Partly Cloudy 32 101.6 -13 72 -17 -24
12:00 W 26 gust 32 Drifting Snow 32 101.7 -15 71 -19 -28
11:00 WNW 27 Drifting Snow 32 101.7 -15 69 -19 -28
10:00 WNW 27 Drifting Snow 32 101.9 -16 68 -21 -30
9:00 WNW 18 Drifting Snow 32 102.0 -17 67 -22 -29
8:00 WNW 22 Drifting Snow 32 102.0 -18 69 -23 -32
 
Map of Arctic - Eastern Arctic marine weather areas Baker Lake Airport Chesterfield Inlet Airport Coral Harbour Airport Gjoa Haven Airport Kugaaruk Airport Rankin Inlet Airport Shepherd Bay Airport Whale Cove Airport Arctic Bay Brevoort Island Qikiqtarjuaq Airport Cape Dorset Airport Cape Dyer Cape Hooper Clyde Airport Grise Fiord Airport Hall Beach Airport Igloolik Airport Iqaluit Airport Longstaff Bluff Pangnirtung Airport Pond Inlet Airport Repulse Bay Airport Resolute Airport Resolution Island Rowley Island Airport Taloyoak Airport Wager Bay Akulivik Airport Ivujivik Airport Puvirnituq Airport Kangiqsujuaq Airport Kangirsuk Airport Quaqtaq Airport Tasiujaq Airport Cape Kakkiviak Cape Kiglapait Nain Airport Saglek Cape Mercy Kimmirut Airport Aupaluk Airport Salluit Airport Kangiqsualujjuaq Airport Fort Ross
Legend: buoyBuoy land stationLand Station